createdAt,value
2018-01-23T00:01:11.843Z,11.63
2018-01-23T00:03:41.312Z,10.97
2018-01-23T00:06:10.828Z,12.10
2018-01-23T00:08:40.295Z,10.47
2018-01-23T00:11:09.908Z,9.90
2018-01-23T00:13:38.940Z,10.67
2018-01-23T00:16:08.327Z,9.63
2018-01-23T00:18:38.066Z,10.47
2018-01-23T00:21:07.102Z,9.40
2018-01-23T00:23:36.491Z,10.87
2018-01-23T00:26:04.739Z,11.03
2018-01-23T00:28:33.018Z,12.07
2018-01-23T00:31:01.266Z,10.40
2018-01-23T00:33:30.839Z,11.10
2018-01-23T00:36:00.536Z,10.80
2018-01-23T00:38:29.539Z,12.53
2018-01-23T00:40:57.763Z,10.93
2018-01-23T00:43:26.048Z,12.43
2018-01-23T00:45:55.630Z,12.07
2018-01-23T00:48:25.095Z,11.93
2018-01-23T00:53:29.699Z,12.30
2018-01-23T00:55:59.725Z,10.53
2018-01-23T00:58:28.593Z,9.93
2018-01-23T01:00:57.951Z,9.83
2018-01-23T01:03:26.230Z,11.40
2018-01-23T01:05:54.474Z,11.33
2018-01-23T01:08:22.719Z,10.00
2018-01-23T01:10:52.502Z,12.73
2018-01-23T01:13:20.740Z,12.57
2018-01-23T01:15:48.994Z,11.53
2018-01-23T01:18:17.702Z,14.53
2018-01-23T01:20:46.136Z,12.47
2018-01-23T01:23:15.894Z,12.40
2018-01-23T01:25:45.531Z,12.90
2018-01-23T01:28:15.009Z,12.40
2018-01-23T01:30:43.508Z,12.80
2018-01-23T01:33:12.554Z,13.00
2018-01-23T01:35:41.543Z,13.20
2018-01-23T01:38:10.020Z,13.43
2018-01-23T01:40:38.283Z,15.27
2018-01-23T01:43:06.513Z,11.73
2018-01-23T01:45:34.751Z,13.50
2018-01-23T01:48:04.186Z,13.70
2018-01-23T01:50:33.781Z,14.03
2018-01-23T01:53:03.030Z,14.73
2018-01-23T01:55:32.264Z,14.40
2018-01-23T01:58:00.910Z,15.27
2018-01-23T02:00:30.492Z,13.47
2018-01-23T02:02:59.434Z,13.03
2018-01-23T02:05:29.014Z,15.97
2018-01-23T02:07:57.892Z,15.00
2018-01-23T02:10:27.292Z,14.77
2018-01-23T02:12:56.287Z,17.90
2018-01-23T02:15:24.520Z,17.17
2018-01-23T02:17:53.548Z,15.77
2018-01-23T02:20:23.144Z,16.07
2018-01-23T02:22:52.602Z,14.47
2018-01-23T02:25:20.768Z,17.87
2018-01-23T02:27:50.374Z,15.17
2018-01-23T02:30:18.888Z,15.43
2018-01-23T02:32:47.195Z,17.07
2018-01-23T02:35:15.458Z,18.73
2018-01-23T02:37:44.474Z,16.90
2018-01-23T02:40:13.514Z,15.90
2018-01-23T02:42:43.266Z,16.67
2018-01-23T02:45:11.512Z,16.57
2018-01-23T02:47:41.131Z,15.87
2018-01-23T02:50:09.635Z,17.67
2018-01-23T02:52:39.216Z,17.20
2018-01-23T02:55:08.734Z,18.00
2018-01-23T02:57:37.240Z,20.47
2018-01-23T03:00:05.574Z,17.87
2018-01-23T03:02:33.887Z,18.00
2018-01-23T03:05:02.120Z,18.60
2018-01-23T03:07:30.360Z,17.40
2018-01-23T03:09:58.647Z,19.23
2018-01-23T03:12:26.895Z,18.77
2018-01-23T03:14:56.274Z,18.13
2018-01-23T03:17:24.928Z,18.03
2018-01-23T03:19:53.178Z,17.73
2018-01-23T03:22:22.912Z,16.80
2018-01-23T03:24:52.536Z,15.63
2018-01-23T03:27:21.794Z,17.97
2018-01-23T03:29:51.430Z,16.57
2018-01-23T03:32:20.722Z,15.90
2018-01-23T03:34:50.321Z,15.63
2018-01-23T03:37:19.199Z,15.60
2018-01-23T03:39:47.592Z,15.97
2018-01-23T03:42:17.342Z,14.60
2018-01-23T03:44:45.605Z,14.53
2018-01-23T03:47:13.892Z,13.60
2018-01-23T03:49:42.115Z,13.30
2018-01-23T03:52:11.851Z,14.10
2018-01-23T03:54:40.134Z,12.50
2018-01-23T03:57:08.384Z,14.80
2018-01-23T03:59:36.607Z,13.90
2018-01-23T04:02:04.907Z,13.00
2018-01-23T04:04:33.136Z,13.57
2018-01-23T04:07:02.877Z,14.40
2018-01-23T04:09:31.155Z,13.53
2018-01-23T04:11:59.790Z,13.83
2018-01-23T04:14:29.378Z,13.97
2018-01-23T04:16:57.936Z,16.80
2018-01-23T04:19:27.308Z,13.77
2018-01-23T04:21:56.883Z,14.47
2018-01-23T04:24:26.438Z,14.10
2018-01-23T04:26:55.272Z,14.03
2018-01-23T04:29:24.268Z,13.93
2018-01-23T04:31:52.542Z,14.60
2018-01-23T04:34:21.552Z,13.03
2018-01-23T04:36:49.784Z,15.00
2018-01-23T04:39:18.455Z,15.80
2018-01-23T04:41:46.726Z,13.43
2018-01-23T04:44:16.475Z,15.83
2018-01-23T04:46:46.162Z,13.97
2018-01-23T04:49:15.044Z,14.07
2018-01-23T04:51:44.637Z,13.60
2018-01-23T04:54:13.547Z,15.13
2018-01-23T04:56:41.779Z,14.00
2018-01-23T04:59:10.784Z,15.70
2018-01-23T05:01:40.273Z,15.43
2018-01-23T05:04:08.865Z,14.20
2018-01-23T05:06:37.100Z,14.57
2018-01-23T05:09:05.376Z,14.40
2018-01-23T05:11:33.640Z,16.40
2018-01-23T05:14:13.909Z,16.53
2018-01-23T05:16:43.711Z,14.97
2018-01-23T05:19:11.834Z,15.63
2018-01-23T05:21:41.451Z,16.97
2018-01-23T05:24:10.328Z,15.17
2018-01-23T05:26:38.583Z,14.23
2018-01-23T05:29:08.220Z,15.07
2018-01-23T05:31:36.739Z,13.83
2018-01-23T05:34:05.369Z,13.50
2018-01-23T05:36:34.450Z,13.47
2018-01-23T05:39:04.032Z,12.30
2018-01-23T05:41:32.536Z,12.90
2018-01-23T05:44:00.821Z,13.70
2018-01-23T05:46:30.391Z,15.13
2018-01-23T05:48:59.865Z,13.27
2018-01-23T05:51:29.164Z,13.83
2018-01-23T05:53:57.396Z,14.53
2018-01-23T05:56:27.136Z,14.43
2018-01-23T05:58:55.405Z,14.17
2018-01-23T06:01:23.647Z,15.10
2018-01-23T06:03:51.897Z,13.20
2018-01-23T06:06:20.222Z,13.93
2018-01-23T06:08:48.476Z,14.10
2018-01-23T06:11:16.711Z,12.80
2018-01-23T06:13:44.990Z,11.13
2018-01-23T06:16:13.235Z,11.37
2018-01-23T06:18:42.822Z,12.03
2018-01-23T06:21:12.494Z,13.00
2018-01-23T06:23:42.167Z,11.90
2018-01-23T06:26:10.794Z,11.90
2018-01-23T06:28:39.068Z,13.30
2018-01-23T06:31:07.308Z,12.43
2018-01-23T06:33:35.539Z,11.73
2018-01-23T06:36:04.944Z,11.20
2018-01-23T06:38:33.189Z,11.90
2018-01-23T06:41:02.184Z,11.50
2018-01-23T06:43:32.146Z,11.60
2018-01-23T06:46:01.894Z,11.07
2018-01-23T06:48:30.519Z,11.23
2018-01-23T06:50:58.790Z,13.50
2018-01-23T06:53:27.783Z,12.90
2018-01-23T06:55:57.368Z,11.77
2018-01-23T06:58:27.388Z,9.93
2018-01-23T07:00:56.027Z,11.33
2018-01-23T07:03:24.272Z,11.80
2018-01-23T07:05:53.912Z,10.23
2018-01-23T07:08:22.480Z,11.53
2018-01-23T07:10:50.704Z,9.60
2018-01-23T07:13:18.988Z,9.53
2018-01-23T07:15:47.287Z,10.57
2018-01-23T07:18:15.526Z,13.27
2018-01-23T07:20:44.928Z,11.80
2018-01-23T07:23:13.175Z,10.47
2018-01-23T07:25:42.168Z,10.50
2018-01-23T07:28:10.451Z,12.43
2018-01-23T07:30:38.696Z,13.23
2018-01-23T07:33:08.344Z,11.47
2018-01-23T07:35:37.996Z,11.40
2018-01-23T07:38:07.279Z,11.30
2018-01-23T07:40:49.445Z,11.40
2018-01-23T07:43:17.998Z,13.00
2018-01-23T07:45:46.228Z,13.40
2018-01-23T07:48:14.526Z,12.60
2018-01-23T07:50:44.267Z,11.77
2018-01-23T07:53:12.504Z,15.00
2018-01-23T07:55:40.786Z,14.30
2018-01-23T07:58:09.028Z,14.00
2018-01-23T08:00:37.283Z,12.67
2018-01-23T08:03:05.544Z,10.87
2018-01-23T08:05:34.176Z,12.77
2018-01-23T08:08:03.559Z,12.97
2018-01-23T08:10:31.852Z,10.87
2018-01-23T08:13:00.092Z,11.87
2018-01-23T08:15:28.324Z,11.53
2018-01-23T08:17:57.943Z,10.03
2018-01-23T08:20:27.399Z,11.33
2018-01-23T08:22:55.922Z,12.27
2018-01-23T08:25:24.184Z,10.80
2018-01-23T08:27:53.203Z,10.23
2018-01-23T08:30:22.226Z,10.53
2018-01-23T08:32:51.872Z,9.80
2018-01-23T08:35:20.369Z,10.13
2018-01-23T08:37:48.615Z,9.83
2018-01-23T08:40:18.127Z,9.30
2018-01-23T08:42:47.543Z,9.03
2018-01-23T08:45:15.777Z,9.10
2018-01-23T08:47:45.395Z,8.67
2018-01-23T08:50:13.518Z,9.00
2018-01-23T08:52:41.743Z,10.27
2018-01-23T08:55:10.016Z,10.27
2018-01-23T08:57:38.277Z,10.23
2018-01-23T09:00:07.678Z,10.70
2018-01-23T09:02:36.725Z,8.87
2018-01-23T09:05:04.953Z,10.50
2018-01-23T09:07:35.900Z,10.23
2018-01-23T09:10:04.174Z,8.87
2018-01-23T09:12:33.760Z,11.03
2018-01-23T09:15:02.297Z,9.67
2018-01-23T09:17:31.879Z,9.43
2018-01-23T09:20:00.380Z,8.00
2018-01-23T09:22:28.715Z,8.90
2018-01-23T09:24:56.962Z,7.87
2018-01-23T09:27:26.539Z,9.00
2018-01-23T09:29:55.572Z,8.40
2018-01-23T09:32:23.838Z,7.27
2018-01-23T09:34:53.575Z,7.70
2018-01-23T09:37:21.852Z,9.50
2018-01-23T09:39:50.096Z,6.50
2018-01-23T09:42:18.354Z,8.30
2018-01-23T09:44:46.627Z,6.43
2018-01-23T09:47:14.852Z,6.90
2018-01-23T09:49:44.428Z,7.17
2018-01-23T09:52:14.080Z,6.60
2018-01-23T09:54:42.325Z,7.53
2018-01-23T09:57:10.562Z,8.17
2018-01-23T09:59:40.342Z,5.93
2018-01-23T10:02:08.591Z,7.23
2018-01-23T10:04:36.824Z,5.97
2018-01-23T10:07:05.080Z,7.40
2018-01-23T10:09:34.816Z,6.33
2018-01-23T10:12:03.044Z,6.80
2018-01-23T10:14:31.308Z,5.43
2018-01-23T10:16:59.945Z,6.17
2018-01-23T10:19:29.531Z,5.57
2018-01-23T10:21:58.061Z,7.00
2018-01-23T10:24:26.295Z,5.20
2018-01-23T10:26:54.530Z,4.80
2018-01-23T10:29:24.165Z,6.83
2018-01-23T10:31:53.812Z,5.27
2018-01-23T10:34:22.032Z,5.97
2018-01-23T10:36:50.364Z,4.63
2018-01-23T10:39:18.591Z,5.13
2018-01-23T10:41:46.846Z,5.50
2018-01-23T10:44:16.241Z,4.83
2018-01-23T10:46:45.232Z,4.37
2018-01-23T10:49:14.808Z,5.77
2018-01-23T10:51:43.343Z,5.40
2018-01-23T10:54:11.996Z,4.97
2018-01-23T10:56:41.712Z,5.73
2018-01-23T10:59:09.971Z,5.23
2018-01-23T11:01:40.322Z,5.93
2018-01-23T11:04:09.970Z,5.30
2018-01-23T11:06:38.281Z,5.40
2018-01-23T11:09:07.333Z,5.43
2018-01-23T11:11:35.626Z,5.40
2018-01-23T11:14:05.449Z,5.13
2018-01-23T11:16:35.056Z,4.17
2018-01-23T11:19:03.978Z,3.73
2018-01-23T11:21:32.204Z,4.67
2018-01-23T11:24:01.976Z,3.50
2018-01-23T11:26:30.204Z,3.30
2018-01-23T11:28:58.447Z,4.10
2018-01-23T11:31:26.701Z,3.80
2018-01-23T11:33:56.284Z,3.20
2018-01-23T11:36:24.784Z,3.53
2018-01-23T11:38:53.063Z,3.17
2018-01-23T11:41:21.684Z,3.63
2018-01-23T11:43:49.922Z,4.00
2018-01-23T11:46:19.548Z,4.40
2018-01-23T11:48:48.087Z,3.50
2018-01-23T11:51:17.678Z,3.70
2018-01-23T11:53:45.824Z,3.97
2018-01-23T11:56:15.489Z,3.10
2018-01-23T11:58:44.967Z,3.47
2018-01-23T12:01:13.904Z,3.53
2018-01-23T12:03:42.154Z,3.50
2018-01-23T12:06:11.732Z,3.10
2018-01-23T12:08:39.859Z,4.17
2018-01-23T12:11:08.088Z,3.90
2018-01-23T12:13:36.321Z,3.70
2018-01-23T12:16:05.360Z,3.43
2018-01-23T12:18:34.961Z,3.23
2018-01-23T12:21:03.068Z,4.47
2018-01-23T12:23:32.679Z,3.70
2018-01-23T12:26:01.558Z,4.73
2018-01-23T12:28:29.786Z,4.03
2018-01-23T12:30:58.054Z,4.27
2018-01-23T12:33:27.048Z,4.63
2018-01-23T12:35:55.295Z,3.40
2018-01-23T12:38:23.572Z,3.20
2018-01-23T12:40:51.808Z,5.00
2018-01-23T12:43:20.064Z,3.20
2018-01-23T12:45:49.852Z,3.30
2018-01-23T12:48:18.126Z,2.93
2018-01-23T12:50:47.713Z,4.50
2018-01-23T12:53:16.287Z,3.10
2018-01-23T12:55:45.872Z,3.80
2018-01-23T12:58:14.767Z,3.73
2018-01-23T13:00:43.650Z,3.90
2018-01-23T13:03:13.397Z,3.20
2018-01-23T13:05:41.618Z,3.40
2018-01-23T13:08:11.219Z,3.87
2018-01-23T13:10:39.724Z,3.40
2018-01-23T13:13:07.952Z,3.43
2018-01-23T13:15:36.984Z,3.47
2018-01-23T13:18:05.207Z,2.73
2018-01-23T13:20:34.808Z,3.30
2018-01-23T13:23:03.356Z,2.67
2018-01-23T13:25:31.575Z,2.67
2018-01-23T13:27:59.812Z,3.10
2018-01-23T13:30:28.103Z,3.03
2018-01-23T13:32:56.328Z,2.67
2018-01-23T13:35:26.070Z,2.70
2018-01-23T13:37:54.649Z,3.33
2018-01-23T13:40:22.920Z,3.20
2018-01-23T13:42:51.175Z,2.27
2018-01-23T13:45:19.521Z,2.87
2018-01-23T13:47:49.116Z,3.30
2018-01-23T13:50:18.588Z,3.20
2018-01-23T13:52:47.558Z,2.97
2018-01-23T13:55:16.973Z,3.57
2018-01-23T13:57:47.176Z,3.50
2018-01-23T14:01:42.426Z,3.30
2018-01-23T14:04:11.092Z,3.90
2018-01-23T14:06:40.304Z,4.80
2018-01-23T14:09:09.652Z,3.70
2018-01-23T14:11:37.916Z,3.33
2018-01-23T14:14:06.140Z,3.87
2018-01-23T14:16:34.376Z,3.00
2018-01-23T14:19:04.149Z,3.67
2018-01-23T14:21:32.392Z,3.37
2018-01-23T14:24:00.616Z,3.10
2018-01-23T14:26:30.214Z,2.53
2018-01-23T14:28:59.091Z,2.20
2018-01-23T14:31:28.662Z,3.00
2018-01-23T14:33:57.576Z,3.10
2018-01-23T14:36:27.154Z,3.10
2018-01-23T14:38:56.752Z,3.80
2018-01-23T14:41:25.032Z,3.80
2018-01-23T14:43:53.260Z,4.03
2018-01-23T14:46:21.483Z,3.37
2018-01-23T14:48:51.274Z,3.07
2018-01-23T14:51:20.871Z,3.50
2018-01-23T14:53:49.379Z,3.70
2018-01-23T14:56:17.660Z,3.83
2018-01-23T14:58:46.654Z,3.33
2018-01-23T15:01:16.032Z,3.90
2018-01-23T15:03:44.301Z,3.97
2018-01-23T15:06:13.907Z,4.37
2018-01-23T15:08:43.413Z,4.80
2018-01-23T15:11:13.071Z,4.50
2018-01-23T15:13:41.299Z,5.47
2018-01-23T15:16:10.880Z,8.03
2018-01-23T15:18:40.524Z,5.20
2018-01-23T15:21:08.753Z,3.70
2018-01-23T15:23:36.972Z,3.57
2018-01-23T15:26:06.571Z,3.57
2018-01-23T15:28:36.867Z,3.00
2018-01-23T15:31:04.989Z,3.40
2018-01-23T15:33:33.252Z,4.00
2018-01-23T15:36:01.486Z,3.17
2018-01-23T15:38:30.481Z,3.53
2018-01-23T15:40:59.863Z,3.27
2018-01-23T15:43:28.091Z,3.40
2018-01-23T15:45:56.320Z,31.33
2018-01-23T15:48:25.938Z,3.20
2018-01-23T15:50:55.383Z,3.03
2018-01-23T15:53:24.832Z,2.40
2018-01-23T15:55:52.959Z,2.37
2018-01-23T15:58:22.320Z,2.63
2018-01-23T16:00:50.555Z,2.10
2018-01-23T16:03:20.175Z,2.43
2018-01-23T16:05:48.687Z,2.47
2018-01-23T16:08:16.916Z,2.90
2018-01-23T16:10:45.179Z,2.30
2018-01-23T16:13:13.412Z,3.10
2018-01-23T16:15:43.135Z,3.60
2018-01-23T16:18:12.751Z,3.70
2018-01-23T16:20:41.248Z,2.20
2018-01-23T16:23:09.473Z,3.10
2018-01-23T16:25:37.768Z,2.00
2018-01-23T16:28:06.014Z,2.60
2018-01-23T16:30:34.258Z,2.40
2018-01-23T16:33:02.524Z,2.20
2018-01-23T16:35:32.079Z,2.50
2018-01-23T16:38:02.199Z,2.70
2018-01-23T16:40:30.328Z,3.53
2018-01-23T16:42:59.894Z,3.00
2018-01-23T16:45:29.400Z,10.30
2018-01-23T16:47:58.847Z,4.30
2018-01-23T16:50:28.295Z,5.30
2018-01-23T16:52:57.783Z,2.60
2018-01-23T16:55:25.891Z,3.33
2018-01-23T16:57:54.899Z,6.07
2018-01-23T17:00:23.554Z,3.50
2018-01-23T17:02:51.788Z,2.70
2018-01-23T17:07:20.260Z,3.97
2018-01-23T17:09:48.491Z,3.00
2018-01-23T17:12:16.712Z,3.40
2018-01-23T17:14:46.495Z,5.10
2018-01-23T17:17:15.888Z,3.60
2018-01-23T17:19:44.109Z,4.00
2018-01-23T17:22:13.142Z,3.73
2018-01-23T17:24:42.729Z,2.43
2018-01-23T17:27:10.836Z,3.77
2018-01-23T17:29:40.460Z,2.43
2018-01-23T17:32:08.555Z,3.17
2018-01-23T17:34:36.812Z,2.27
2018-01-23T17:37:05.112Z,3.53
2018-01-23T17:39:33.392Z,2.37
2018-01-23T17:42:01.618Z,3.10
2018-01-23T17:44:29.940Z,4.00
2018-01-23T17:46:58.168Z,2.93
2018-01-23T17:49:26.392Z,3.53
2018-01-23T17:51:54.657Z,2.17
2018-01-23T17:54:24.240Z,2.93
2018-01-23T17:56:53.686Z,2.60
2018-01-23T17:59:21.823Z,3.10
2018-01-23T18:01:50.051Z,2.10
2018-01-23T18:04:18.300Z,2.37
2018-01-23T18:06:47.337Z,2.87
2018-01-23T18:09:16.925Z,2.73
2018-01-23T18:11:46.547Z,2.83
2018-01-23T18:14:14.814Z,2.53
2018-01-23T18:16:43.484Z,2.47
2018-01-23T18:19:11.749Z,2.70
2018-01-23T18:21:40.756Z,2.70
2018-01-23T18:24:09.739Z,2.57
2018-01-23T18:26:37.960Z,3.00
2018-01-23T18:29:07.384Z,4.03
2018-01-23T18:31:35.637Z,3.57
2018-01-23T18:34:03.966Z,2.73
2018-01-23T18:36:32.255Z,3.40
2018-01-23T18:39:00.476Z,3.40
2018-01-23T18:41:30.058Z,2.23
2018-01-23T18:43:58.975Z,2.53
2018-01-23T18:46:27.960Z,3.20
2018-01-23T18:48:56.175Z,2.97
2018-01-23T18:51:25.778Z,3.20
2018-01-23T18:53:55.068Z,2.67
2018-01-23T18:56:24.411Z,3.10
2018-01-23T18:58:52.722Z,2.90
2018-01-23T19:01:21.035Z,6.10
2018-01-23T19:03:50.029Z,3.10
2018-01-23T19:06:19.068Z,4.00
2018-01-23T19:08:47.303Z,3.40
2018-01-23T19:11:15.565Z,3.03
2018-01-23T19:13:43.891Z,2.97
2018-01-23T19:16:12.491Z,3.40
2018-01-23T19:18:42.228Z,3.30
2018-01-23T19:21:10.526Z,2.83
2018-01-23T19:23:38.792Z,3.13
2018-01-23T19:26:08.403Z,3.17
2018-01-23T19:28:38.028Z,2.77
2018-01-23T19:31:06.282Z,2.80
2018-01-23T19:33:34.589Z,3.53
2018-01-23T19:36:04.293Z,2.97
2018-01-23T19:38:32.423Z,3.50
2018-01-23T19:41:02.031Z,3.07
2018-01-23T19:43:31.546Z,2.30
2018-01-23T19:46:00.391Z,2.43
2018-01-23T19:48:29.831Z,2.17
2018-01-23T19:50:59.274Z,2.37
2018-01-23T19:53:27.873Z,2.80
2018-01-23T19:55:57.604Z,3.70
2018-01-23T19:58:27.258Z,2.20
2018-01-23T20:00:56.122Z,2.23
2018-01-23T20:03:24.386Z,2.60
2018-01-23T20:05:54.031Z,2.70
2018-01-23T20:08:22.559Z,2.43
2018-01-23T20:10:51.535Z,3.07
2018-01-23T20:13:19.863Z,2.40
2018-01-23T20:15:48.121Z,3.30
2018-01-23T20:18:16.367Z,2.40
2018-01-23T20:20:44.624Z,2.70
2018-01-23T20:23:12.892Z,3.60
2018-01-23T20:25:41.152Z,2.27
2018-01-23T20:28:10.590Z,3.20
2018-01-23T20:30:39.629Z,3.50
2018-01-23T20:33:09.195Z,3.40
2018-01-23T20:35:37.800Z,2.60
2018-01-23T20:38:07.391Z,3.50
2018-01-23T20:40:35.568Z,2.90
2018-01-23T20:43:03.887Z,2.50
2018-01-23T20:45:32.137Z,2.80
2018-01-23T20:48:01.687Z,4.33
2018-01-23T20:50:31.229Z,3.17
2018-01-23T20:52:59.713Z,3.90
2018-01-23T20:55:27.931Z,2.70
2018-01-23T20:57:56.263Z,3.80
2018-01-23T21:00:24.523Z,3.87
2018-01-23T21:02:52.742Z,3.97
2018-01-23T21:05:22.398Z,3.00
2018-01-23T21:07:51.883Z,3.17
2018-01-23T21:10:21.139Z,4.10
2018-01-23T21:12:49.477Z,4.33
2018-01-23T21:15:18.907Z,3.73
2018-01-23T21:17:47.199Z,3.57
2018-01-23T21:20:15.902Z,3.20
2018-01-23T21:22:45.643Z,3.63
2018-01-23T21:25:13.915Z,3.37
2018-01-23T21:27:42.231Z,3.33
2018-01-23T21:30:11.853Z,3.67
2018-01-23T21:32:41.454Z,3.10
2018-01-23T21:35:11.094Z,3.00
2018-01-23T21:37:39.951Z,3.20
2018-01-23T21:40:08.243Z,3.30
2018-01-23T21:42:36.551Z,3.20
2018-01-23T21:45:05.907Z,3.10
2018-01-23T21:47:34.201Z,3.27
2018-01-23T21:50:03.232Z,2.97
2018-01-23T21:52:32.643Z,3.37
2018-01-23T21:55:00.856Z,3.07
2018-01-23T21:57:30.484Z,2.80
2018-01-23T21:59:59.403Z,3.10
2018-01-23T22:02:28.958Z,2.40
2018-01-23T22:04:57.504Z,3.10
2018-01-23T22:07:27.071Z,3.20
2018-01-23T22:09:55.944Z,2.83
2018-01-23T22:12:25.791Z,11.80
2018-01-23T22:14:54.279Z,12.23
2018-01-23T22:17:23.314Z,2.33
2018-01-23T22:19:51.576Z,2.40
2018-01-23T22:22:21.202Z,2.40
2018-01-23T22:24:49.697Z,2.20
2018-01-23T22:27:19.299Z,2.20
2018-01-23T22:29:48.763Z,2.00
2018-01-23T22:32:18.407Z,2.30
2018-01-23T22:34:46.802Z,2.53
2018-01-23T22:37:16.554Z,2.57
2018-01-23T22:39:44.781Z,2.23
2018-01-23T22:42:14.403Z,2.10
2018-01-23T22:44:43.277Z,1.77
2018-01-23T22:47:12.847Z,2.00
2018-01-23T22:49:42.365Z,1.80
2018-01-23T22:52:10.842Z,1.60
2018-01-23T22:54:40.203Z,1.90
2018-01-23T22:57:09.230Z,2.03
2018-01-23T22:59:37.447Z,2.30
2018-01-23T23:02:05.685Z,2.00
2018-01-23T23:04:35.307Z,1.30
2018-01-23T23:07:03.811Z,1.83
2018-01-23T23:09:32.032Z,1.90
2018-01-23T23:12:01.048Z,1.80
2018-01-23T23:14:30.040Z,1.50
2018-01-23T23:16:58.264Z,1.50
2018-01-23T23:19:26.950Z,1.30
2018-01-23T23:21:55.186Z,1.80
2018-01-23T23:24:24.915Z,1.57
2018-01-23T23:26:54.543Z,1.80
2018-01-23T23:29:23.412Z,1.93
2018-01-23T23:31:51.658Z,1.60
2018-01-23T23:34:20.191Z,1.90
2018-01-23T23:36:48.824Z,1.47
2018-01-23T23:39:18.440Z,1.80
2018-01-23T23:41:47.344Z,1.50
2018-01-23T23:44:16.981Z,1.50
2018-01-23T23:46:45.508Z,1.43
2018-01-23T23:49:13.768Z,1.77
2018-01-23T23:51:41.987Z,1.80
2018-01-23T23:54:10.212Z,2.00
2018-01-23T23:56:38.483Z,1.47
2018-01-23T23:59:08.215Z,1.80
